Cleveland, Ohio
Current Conditions -  °F | °C
As of 12:38 PM on Thursday 23 Oct 2014 (Local Time) from KBKL Reporting Station
Overcast Overcast  
Wind Chill: 53°   Ceiling: 1400
Heat Index: 53°   Visibility: 10mi
Dew Point: 46°   Wind: 9mph
Humidity: 77%   Direction: 300°WNW
Pressure: 30.2"   Gusts: NA
Location:  41.5°N, 81.69°W
Report Text: KBKL 231638Z 30008KT 10SM BKN014 OVC019 12/08 A3020 RMK AO2 T01170078
Loading
Personal Weather Stations






























Interactive Weather Map
Tropical Storm Tracking
New forecast layout! Learn more

10-Day Weather Forecast

Advertisements
Track Severe Weather on mobile